Terminal Aerodrome Forecast
Issued by NWS State College, PA

Home | Current Version | Previous Version | Text Only | Print | Product List | Glossary On
Versions: 1 2 3 4 5 6 7 8 9 10 11 12 13 14 15 16 17 18 19 20 21 22 23 24 25 26 27
000
FTUS41 KCTP 270611 RRA
TAFIPT
TAF
KIPT 270611Z 2706/2806 09005KT 6SM -SHRA OVC010
      TEMPO 2707/2709 3SM SHRA OVC009
     FM271200 12003KT 5SM BR VCSH OVC010
     FM271500 15005KT P6SM BKN015
     FM272000 24005KT P6SM SCT025 BKN050
     FM280000 VRB02KT P6SM OVC050=

USA.gov is the U.S. government's official web portal to all federal, state and local government web resources and services.